Time;durP1;ratioP1;P1;durP2;ratioP2;P2;SDS_P1;SDS_P2;PMS_P1;PMS_P2;Temp;Humidity;BMP_temperature;BMP_pressure;BME280_temperature;BME280_humidity;BME280_pressure;Samples;Min_cycle;Max_cycle;Signal;HPM_P1;HPM_P2
2023/06/16 00:02:12;;;;;;;6.13;5.60;;;;;;;;;;5065126;28;20312;-54
2023/06/16 00:04:39;;;;;;;9.00;6.55;;;;;;;;;;5058621;28;20721;-55
2023/06/16 00:07:09;;;;;;;7.05;6.35;;;;;;;;;;5070136;28;20648;-55
2023/06/16 00:09:35;;;;;;;7.65;6.95;;;;;;;;;;5078065;28;20222;-54
2023/06/16 00:12:02;;;;;;;8.25;7.45;;;;;;;;;;5084889;28;20323;-54
2023/06/16 00:14:29;;;;;;;9.23;7.30;;;;;;;;;;5084992;28;20234;-55
2023/06/16 00:16:57;;;;;;;10.77;6.75;;;;;;;;;;5084785;28;20708;-53
2023/06/16 00:19:27;;;;;;;7.65;6.95;;;;;;;;;;5089458;28;20226;-53
2023/06/16 00:21:53;;;;;;;8.20;7.47;;;;;;;;;;5072580;28;20258;-53
2023/06/16 00:24:21;;;;;;;9.13;8.23;;;;;;;;;;5087313;28;20529;-54
2023/06/16 00:26:47;;;;;;;12.25;7.40;;;;;;;;;;5089039;28;20223;-54
2023/06/16 00:29:14;;;;;;;8.60;7.80;;;;;;;;;;5089242;28;20238;-52
2023/06/16 00:31:40;;;;;;;8.52;7.65;;;;;;;;;;5087535;28;20310;-52
2023/06/16 00:34:07;;;;;;;8.65;6.85;;;;;;;;;;5092074;28;20230;-53
2023/06/16 00:36:33;;;;;;;7.43;6.72;;;;;;;;;;5087734;28;20234;-51
2023/06/16 00:38:59;;;;;;;9.02;7.45;;;;;;;;;;5084474;28;20317;-53
2023/06/16 00:41:27;;;;;;;7.85;7.25;;;;;;;;;;5088058;28;20313;-53
2023/06/16 00:43:55;;;;;;;8.15;7.25;;;;;;;;;;5088212;28;20241;-53
2023/06/16 00:46:25;;;;;;;7.45;6.78;;;;;;;;;;5088247;28;20235;-51
2023/06/16 00:48:52;;;;;;;7.90;7.20;;;;;;;;;;5078651;28;20237;-52
2023/06/16 00:51:18;;;;;;;10.85;6.72;;;;;;;;;;5072107;28;20266;-51
2023/06/16 00:53:44;;;;;;;6.93;6.32;;;;;;;;;;5087114;28;20237;-53
2023/06/16 00:56:11;;;;;;;6.97;6.32;;;;;;;;;;5077813;28;20318;-51
2023/06/16 00:58:39;;;;;;;12.35;7.85;;;;;;;;;;5066876;28;20231;-52
2023/06/16 01:01:05;;;;;;;9.93;7.50;;;;;;;;;;5064889;28;20238;-53
2023/06/16 01:03:32;;;;;;;9.38;7.72;;;;;;;;;;5070541;28;20308;-52
2023/06/16 01:06:03;;;;;;;7.88;7.07;;;;;;;;;;5087464;28;20728;-52
2023/06/16 01:08:32;;;;;;;7.78;7.07;;;;;;;;;;5075247;28;20365;-51
2023/06/16 01:11:03;;;;;;;7.15;6.55;;;;;;;;;;5088967;28;20714;-52
2023/06/16 01:13:34;;;;;;;11.10;7.68;;;;;;;;;;5063644;28;20235;-54
2023/06/16 01:16:03;;;;;;;8.02;7.32;;;;;;;;;;5063572;28;20719;-52
2023/06/16 01:18:30;;;;;;;8.45;7.55;;;;;;;;;;5060523;28;20330;-53
2023/06/16 01:21:00;;;;;;;8.02;7.22;;;;;;;;;;5075665;28;20322;-60
2023/06/16 01:23:33;;;;;;;6.80;6.20;;;;;;;;;;5089148;28;20759;-53
2023/06/16 01:26:01;;;;;;;7.60;6.88;;;;;;;;;;5095995;28;20280;-53
2023/06/16 01:28:29;;;;;;;8.60;7.75;;;;;;;;;;5093263;28;20284;-53
2023/06/16 01:30:56;;;;;;;7.85;6.75;;;;;;;;;;5070806;28;20231;-52
2023/06/16 01:33:24;;;;;;;7.05;6.43;;;;;;;;;;5063572;28;20249;-52
2023/06/16 01:35:53;;;;;;;7.97;7.18;;;;;;;;;;5068101;28;20242;-52
2023/06/16 01:38:20;;;;;;;7.63;6.88;;;;;;;;;;5065168;28;20360;-52
2023/06/16 01:40:48;;;;;;;8.00;7.07;;;;;;;;;;5048518;28;20228;-53
2023/06/16 01:43:16;;;;;;;8.40;6.55;;;;;;;;;;5050397;28;20239;-52
2023/06/16 01:45:43;;;;;;;7.20;6.53;;;;;;;;;;5061213;28;20254;-52
2023/06/16 01:48:09;;;;;;;7.60;6.70;;;;;;;;;;5063566;28;20609;-53
2023/06/16 01:50:36;;;;;;;7.70;6.90;;;;;;;;;;5067552;28;20230;-52
2023/06/16 01:53:02;;;;;;;7.43;6.68;;;;;;;;;;5067112;28;20231;-53
2023/06/16 01:55:28;;;;;;;7.75;7.00;;;;;;;;;;5067756;28;20571;-53
2023/06/16 01:57:56;;;;;;;10.00;7.32;;;;;;;;;;5067720;28;20723;-53
2023/06/16 02:00:25;;;;;;;6.43;5.80;;;;;;;;;;5085306;28;20237;-54
2023/06/16 02:02:54;;;;;;;6.07;5.20;;;;;;;;;;5084029;28;20751;-53
2023/06/16 02:05:23;;;;;;;9.40;8.10;;;;;;;;;;5086897;28;20295;-53
2023/06/16 02:07:50;;;;;;;8.90;6.93;;;;;;;;;;5087503;28;20226;-54
2023/06/16 02:10:17;;;;;;;8.30;7.13;;;;;;;;;;5087039;28;20268;-54
2023/06/16 02:12:43;;;;;;;7.22;6.28;;;;;;;;;;5086475;28;20245;-54
2023/06/16 02:15:10;;;;;;;6.25;5.78;;;;;;;;;;5082704;28;20241;-55
2023/06/16 02:17:44;;;;;;;7.18;6.53;;;;;;;;;;5082122;28;20225;-53
2023/06/16 02:20:10;;;;;;;6.82;6.18;;;;;;;;;;5087203;28;20279;-53
2023/06/16 02:22:37;;;;;;;7.65;6.88;;;;;;;;;;5086318;28;20619;-53
2023/06/16 02:25:03;;;;;;;7.35;6.15;;;;;;;;;;5087462;28;20283;-53
2023/06/16 02:27:30;;;;;;;7.90;7.10;;;;;;;;;;5087517;28;20284;-54
2023/06/16 02:29:56;;;;;;;9.65;5.85;;;;;;;;;;5085633;28;20231;-52
2023/06/16 02:32:23;;;;;;;7.35;6.53;;;;;;;;;;5085239;28;20696;-52
2023/06/16 02:34:52;;;;;;;6.25;5.65;;;;;;;;;;5084254;28;20236;-53
2023/06/16 02:37:19;;;;;;;6.00;5.55;;;;;;;;;;5084708;28;20309;-52
2023/06/16 02:39:45;;;;;;;6.68;6.00;;;;;;;;;;5082711;28;20284;-54
2023/06/16 02:42:12;;;;;;;7.32;6.18;;;;;;;;;;5084746;28;20803;-53
2023/06/16 02:44:38;;;;;;;8.20;6.35;;;;;;;;;;5084377;28;20230;-54
2023/06/16 02:47:05;;;;;;;7.25;6.40;;;;;;;;;;5085787;28;20713;-54
2023/06/16 02:49:32;;;;;;;6.18;5.68;;;;;;;;;;5086303;28;20226;-54
2023/06/16 02:52:00;;;;;;;7.45;6.75;;;;;;;;;;5086554;28;20262;-55
2023/06/16 02:54:26;;;;;;;7.13;6.53;;;;;;;;;;5087258;28;20239;-54
2023/06/16 02:56:53;;;;;;;5.93;5.43;;;;;;;;;;5092911;28;20317;-54
2023/06/16 02:59:19;;;;;;;7.20;5.40;;;;;;;;;;5090884;28;20303;-53
2023/06/16 03:01:46;;;;;;;6.75;6.10;;;;;;;;;;5088744;28;20238;-55
2023/06/16 03:04:12;;;;;;;6.38;5.85;;;;;;;;;;5090240;28;20234;-53
2023/06/16 03:06:39;;;;;;;7.30;6.50;;;;;;;;;;5091344;28;20253;-54
2023/06/16 03:09:06;;;;;;;6.75;6.15;;;;;;;;;;5091940;28;20237;-54
2023/06/16 03:11:33;;;;;;;7.43;6.55;;;;;;;;;;5081512;28;20315;-55
2023/06/16 03:13:59;;;;;;;7.50;6.80;;;;;;;;;;5087459;28;20233;-55
2023/06/16 03:16:27;;;;;;;8.27;6.63;;;;;;;;;;5089054;28;20683;-54
2023/06/16 03:18:53;;;;;;;6.88;6.28;;;;;;;;;;5086832;28;20768;-54
2023/06/16 03:21:20;;;;;;;7.70;5.78;;;;;;;;;;5086338;28;20240;-54
2023/06/16 03:23:47;;;;;;;7.07;6.35;;;;;;;;;;5086484;28;20254;-54
2023/06/16 03:26:15;;;;;;;7.30;6.70;;;;;;;;;;5086245;28;20230;-54
2023/06/16 03:28:41;;;;;;;6.55;5.95;;;;;;;;;;5085588;28;20230;-55
2023/06/16 03:31:08;;;;;;;7.25;6.55;;;;;;;;;;5087296;28;20227;-53
2023/06/16 03:33:34;;;;;;;6.68;6.10;;;;;;;;;;5086872;28;20265;-54
2023/06/16 03:36:01;;;;;;;7.55;6.95;;;;;;;;;;5087848;28;20241;-54
2023/06/16 03:38:27;;;;;;;7.53;6.78;;;;;;;;;;5093816;28;20257;-55
2023/06/16 03:40:54;;;;;;;8.05;7.30;;;;;;;;;;5087116;28;20294;-54
2023/06/16 03:43:22;;;;;;;7.95;7.13;;;;;;;;;;5081034;28;20299;-53
2023/06/16 03:45:48;;;;;;;6.88;6.28;;;;;;;;;;5085799;28;20228;-53
2023/06/16 03:48:15;;;;;;;7.38;6.68;;;;;;;;;;5085931;28;20234;-53
2023/06/16 03:50:41;;;;;;;8.13;7.43;;;;;;;;;;5085922;28;20226;-54
2023/06/16 03:53:07;;;;;;;7.88;7.10;;;;;;;;;;5087973;28;20238;-53
2023/06/16 03:55:34;;;;;;;7.88;7.18;;;;;;;;;;5090108;28;20363;-54
2023/06/16 03:58:00;;;;;;;9.82;6.97;;;;;;;;;;5084549;28;20239;-53
2023/06/16 04:00:28;;;;;;;8.95;7.70;;;;;;;;;;5085117;28;20664;-54
2023/06/16 04:02:54;;;;;;;8.55;7.47;;;;;;;;;;5084199;28;20313;-53
2023/06/16 04:05:23;;;;;;;6.97;6.45;;;;;;;;;;5089503;28;20704;-54
2023/06/16 04:07:51;;;;;;;11.07;8.45;;;;;;;;;;5090070;28;20826;-54
2023/06/16 04:10:17;;;;;;;9.65;8.73;;;;;;;;;;5089973;28;20256;-54
2023/06/16 04:12:44;;;;;;;7.78;7.07;;;;;;;;;;5094612;28;20237;-54
2023/06/16 04:15:10;;;;;;;8.00;7.30;;;;;;;;;;5089436;28;20226;-54
2023/06/16 04:17:38;;;;;;;9.25;8.35;;;;;;;;;;5089401;28;20222;-56
2023/06/16 04:20:09;;;;;;;9.07;7.88;;;;;;;;;;5085129;28;20695;-54
2023/06/16 04:22:36;;;;;;;8.18;7.47;;;;;;;;;;5088936;28;20684;-54
2023/06/16 04:25:02;;;;;;;8.38;7.68;;;;;;;;;;5089012;28;20784;-54
2023/06/16 04:27:31;;;;;;;8.40;7.70;;;;;;;;;;5105543;27;20229;-54
2023/06/16 04:29:58;;;;;;;9.38;8.23;;;;;;;;;;5085315;28;20687;-55
2023/06/16 04:32:24;;;;;;;9.23;8.38;;;;;;;;;;5083592;28;20227;-54
2023/06/16 04:34:52;;;;;;;9.27;8.48;;;;;;;;;;5070586;28;20230;-54
2023/06/16 04:37:18;;;;;;;9.00;8.20;;;;;;;;;;5085618;28;20346;-54
2023/06/16 04:39:45;;;;;;;8.40;7.63;;;;;;;;;;5074717;28;20314;-54
2023/06/16 04:42:11;;;;;;;9.45;8.65;;;;;;;;;;5056799;28;20281;-54
2023/06/16 04:44:40;;;;;;;8.63;7.72;;;;;;;;;;5061339;28;20239;-54
2023/06/16 04:47:07;;;;;;;9.23;7.55;;;;;;;;;;5068556;28;20234;-54
2023/06/16 04:49:33;;;;;;;8.57;7.88;;;;;;;;;;5068835;28;20232;-53
2023/06/16 04:52:01;;;;;;;8.82;8.13;;;;;;;;;;5068863;28;20243;-54
2023/06/16 04:54:29;;;;;;;7.80;7.00;;;;;;;;;;5075136;28;20218;-55
2023/06/16 04:56:55;;;;;;;8.65;7.72;;;;;;;;;;5073855;28;20250;-54
2023/06/16 04:59:22;;;;;;;8.55;7.75;;;;;;;;;;5079255;28;20659;-55
2023/06/16 05:01:49;;;;;;;9.52;8.63;;;;;;;;;;5081979;28;20255;-54
2023/06/16 05:04:16;;;;;;;8.95;8.18;;;;;;;;;;5086149;28;20239;-53
2023/06/16 05:06:42;;;;;;;7.72;7.03;;;;;;;;;;5088239;28;20234;-53
2023/06/16 05:09:10;;;;;;;8.65;7.85;;;;;;;;;;5087196;28;20643;-55
2023/06/16 05:11:36;;;;;;;9.13;8.13;;;;;;;;;;5086956;28;20754;-53
2023/06/16 05:14:12;;;;;;;9.48;8.57;;;;;;;;;;5086784;28;20263;-54
2023/06/16 05:16:39;;;;;;;8.38;7.70;;;;;;;;;;5088128;28;20242;-55
2023/06/16 05:19:06;;;;;;;9.43;8.50;;;;;;;;;;5088577;28;20233;-53
2023/06/16 05:21:32;;;;;;;8.55;7.85;;;;;;;;;;5087940;28;20241;-54
2023/06/16 05:23:59;;;;;;;9.07;8.30;;;;;;;;;;5086678;28;20333;-54
2023/06/16 05:26:27;;;;;;;8.68;7.88;;;;;;;;;;5087076;28;20557;-54
2023/06/16 05:28:57;;;;;;;8.35;7.55;;;;;;;;;;5084295;28;20234;-54
2023/06/16 05:31:24;;;;;;;7.78;7.13;;;;;;;;;;5072410;28;20746;-53
2023/06/16 05:33:50;;;;;;;7.80;7.20;;;;;;;;;;5081745;28;20249;-54
2023/06/16 05:36:17;;;;;;;7.65;7.03;;;;;;;;;;5065440;28;20236;-55
2023/06/16 05:38:47;;;;;;;8.32;7.63;;;;;;;;;;5082939;28;20227;-54
2023/06/16 05:41:23;;;;;;;8.32;7.18;;;;;;;;;;5084961;28;20235;-54
2023/06/16 05:43:53;;;;;;;8.77;7.05;;;;;;;;;;5073636;28;20223;-54
2023/06/16 05:46:30;;;;;;;;;;;;;;;;;;;;;
2023/06/16 05:48:59;;;;;;;6.93;6.22;;;;;;;;;;5056836;28;20508;-54
2023/06/16 05:51:25;;;;;;;7.95;6.72;;;;;;;;;;5066714;28;20235;-53
2023/06/16 05:53:55;;;;;;;9.93;7.03;;;;;;;;;;5065200;28;20239;-53
2023/06/16 05:56:32;;;;;;;8.02;7.30;;;;;;;;;;5066502;28;20255;-53
2023/06/16 05:59:03;;;;;;;6.85;6.22;;;;;;;;;;5063712;28;20223;-54
2023/06/16 06:01:34;;;;;;;6.65;6.03;;;;;;;;;;5087096;28;20308;-54
2023/06/16 06:04:00;;;;;;;7.97;6.45;;;;;;;;;;5086355;28;20230;-54
2023/06/16 06:06:33;;;;;;;6.43;5.78;;;;;;;;;;5085086;28;20227;-54
2023/06/16 06:08:59;;;;;;;8.13;5.78;;;;;;;;;;5087080;28;20309;-55
2023/06/16 06:11:26;;;;;;;6.57;5.97;;;;;;;;;;5088023;28;20250;-55
2023/06/16 06:13:59;;;;;;;6.60;6.10;;;;;;;;;;5087238;28;20245;-54
2023/06/16 06:16:30;;;;;;;6.70;6.15;;;;;;;;;;5087319;28;20577;-54
2023/06/16 06:19:00;;;;;;;5.47;5.00;;;;;;;;;;5065887;28;20280;-53
2023/06/16 06:21:27;;;;;;;6.22;5.60;;;;;;;;;;5069783;28;20288;-55
2023/06/16 06:23:56;;;;;;;5.85;5.40;;;;;;;;;;5084034;28;20234;-53
2023/06/16 06:26:23;;;;;;;6.18;5.43;;;;;;;;;;5088765;28;20890;-53
2023/06/16 06:28:49;;;;;;;5.75;5.25;;;;;;;;;;5068553;28;20254;-53
2023/06/16 06:31:16;;;;;;;5.25;4.85;;;;;;;;;;5069992;28;20258;-52
2023/06/16 06:33:45;;;;;;;5.90;5.50;;;;;;;;;;5066623;28;20333;-53
2023/06/16 06:36:14;;;;;;;5.82;5.32;;;;;;;;;;5070893;28;20314;-52
2023/06/16 06:38:44;;;;;;;5.90;5.40;;;;;;;;;;5060102;28;20229;-53
2023/06/16 06:41:19;;;;;;;6.22;5.15;;;;;;;;;;5066547;28;20322;-53
2023/06/16 06:43:50;;;;;;;6.28;5.78;;;;;;;;;;5066364;28;20242;-53
2023/06/16 06:46:17;;;;;;;7.40;6.72;;;;;;;;;;5068953;28;20741;-53
2023/06/16 06:48:55;;;;;;;7.75;7.15;;;;;;;;;;5074604;28;20231;-53
2023/06/16 06:51:27;;;;;;;6.70;6.10;;;;;;;;;;5062081;28;20844;-53
2023/06/16 06:53:54;;;;;;;7.57;6.10;;;;;;;;;;5061068;28;20242;-52
2023/06/16 06:56:22;;;;;;;6.80;5.90;;;;;;;;;;5057563;28;20909;-52
2023/06/16 06:58:49;;;;;;;7.63;6.88;;;;;;;;;;5080637;28;20246;-52
2023/06/16 07:01:15;;;;;;;7.50;6.90;;;;;;;;;;5083661;28;20238;-51
2023/06/16 07:03:42;;;;;;;5.97;5.50;;;;;;;;;;5084835;28;20857;-52
2023/06/16 07:06:13;;;;;;;6.63;6.03;;;;;;;;;;5084229;28;20269;-52
2023/06/16 07:08:40;;;;;;;5.88;5.40;;;;;;;;;;5084038;28;20227;-52
2023/06/16 07:11:07;;;;;;;7.45;6.75;;;;;;;;;;5083716;28;20585;-52
2023/06/16 07:13:36;;;;;;;7.25;6.65;;;;;;;;;;5084075;28;20280;-53
2023/06/16 07:16:03;;;;;;;6.40;5.90;;;;;;;;;;5082725;28;20242;-52
2023/06/16 07:18:30;;;;;;;6.80;6.15;;;;;;;;;;5078323;28;20252;-52
2023/06/16 07:20:58;;;;;;;8.20;7.43;;;;;;;;;;5078360;28;20249;-52
2023/06/16 07:23:28;;;;;;;8.23;7.50;;;;;;;;;;5079852;28;20291;-52
2023/06/16 07:25:56;;;;;;;7.57;6.97;;;;;;;;;;5081465;28;20246;-52
2023/06/16 07:28:23;;;;;;;8.18;7.38;;;;;;;;;;5058634;28;20301;-53
2023/06/16 07:30:52;;;;;;;8.43;7.63;;;;;;;;;;5058126;28;20322;-52
2023/06/16 07:33:21;;;;;;;8.43;7.63;;;;;;;;;;5056024;28;20231;-51
2023/06/16 07:35:50;;;;;;;9.10;8.30;;;;;;;;;;5058396;28;20323;-52
2023/06/16 07:38:17;;;;;;;10.75;9.75;;;;;;;;;;5064854;28;20230;-51
2023/06/16 07:40:46;;;;;;;10.32;9.43;;;;;;;;;;5060997;28;20249;-51
2023/06/16 07:43:13;;;;;;;11.27;10.13;;;;;;;;;;5055865;28;20242;-53
2023/06/16 07:45:40;;;;;;;10.35;8.70;;;;;;;;;;5057558;28;20235;-53
2023/06/16 07:48:08;;;;;;;10.43;8.98;;;;;;;;;;5055302;28;20227;-52
2023/06/16 07:50:35;;;;;;;8.88;8.07;;;;;;;;;;5059781;28;20292;-53
2023/06/16 07:53:02;;;;;;;23.70;12.77;;;;;;;;;;5059040;28;20231;-53
2023/06/16 07:55:29;;;;;;;32.75;14.00;;;;;;;;;;5062500;28;20581;-53
2023/06/16 07:57:57;;;;;;;14.75;11.07;;;;;;;;;;5062409;28;20273;-54
2023/06/16 08:00:24;;;;;;;16.65;11.13;;;;;;;;;;5056440;28;20234;-53
2023/06/16 08:02:51;;;;;;;13.23;10.57;;;;;;;;;;5059603;28;20236;-52
2023/06/16 08:05:20;;;;;;;14.57;10.60;;;;;;;;;;5056179;28;20251;-53
2023/06/16 08:07:47;;;;;;;10.43;9.43;;;;;;;;;;5063379;28;20599;-52
2023/06/16 08:10:16;;;;;;;9.30;8.32;;;;;;;;;;5062410;28;20235;-53
2023/06/16 08:12:43;;;;;;;12.32;11.15;;;;;;;;;;5062007;28;20786;-54
2023/06/16 08:15:12;;;;;;;10.30;9.38;;;;;;;;;;5059515;28;20235;-53
2023/06/16 08:17:39;;;;;;;11.73;10.63;;;;;;;;;;5057678;28;20232;-53
2023/06/16 08:20:06;;;;;;;10.68;9.65;;;;;;;;;;5063858;28;20246;-53
2023/06/16 08:22:34;;;;;;;10.15;9.23;;;;;;;;;;5059257;28;20292;-53
2023/06/16 08:25:02;;;;;;;11.38;9.95;;;;;;;;;;5074734;28;20713;-54
2023/06/16 08:27:29;;;;;;;11.98;10.70;;;;;;;;;;5073105;28;20253;-53
2023/06/16 08:29:56;;;;;;;18.95;11.40;;;;;;;;;;5071124;28;20227;-52
2023/06/16 08:32:23;;;;;;;15.70;8.75;;;;;;;;;;5061271;28;20648;-55
2023/06/16 08:34:50;;;;;;;18.70;8.70;;;;;;;;;;5059716;28;20227;-54
2023/06/16 08:37:17;;;;;;;11.70;6.75;;;;;;;;;;5057166;28;20236;-52
2023/06/16 08:39:43;;;;;;;6.35;5.80;;;;;;;;;;5063988;28;20259;-52
2023/06/16 08:42:10;;;;;;;8.00;7.25;;;;;;;;;;5059037;28;20228;-52
2023/06/16 08:44:39;;;;;;;6.57;6.07;;;;;;;;;;5071446;28;20219;-54
2023/06/16 08:47:08;;;;;;;6.15;5.53;;;;;;;;;;5054725;28;20235;-54
2023/06/16 08:49:36;;;;;;;5.93;5.38;;;;;;;;;;5073497;28;20307;-53
2023/06/16 08:52:03;;;;;;;6.07;5.47;;;;;;;;;;5063149;28;20246;-55
2023/06/16 08:54:31;;;;;;;6.10;5.60;;;;;;;;;;5087867;28;20227;-54
2023/06/16 08:57:01;;;;;;;5.70;5.13;;;;;;;;;;5086265;28;20227;-55
2023/06/16 08:59:30;;;;;;;5.47;4.97;;;;;;;;;;5087921;28;20396;-55
2023/06/16 09:01:59;;;;;;;5.93;5.43;;;;;;;;;;5085303;28;20240;-56
2023/06/16 09:04:28;;;;;;;6.38;5.78;;;;;;;;;;5085691;28;20231;-57
2023/06/16 09:06:57;;;;;;;5.65;5.15;;;;;;;;;;5081879;28;20644;-57
2023/06/16 09:09:23;;;;;;;5.47;5.07;;;;;;;;;;5086749;28;20230;-59
2023/06/16 09:12:02;;;;;;;21.92;6.40;;;;;;;;;;5066722;28;20231;-58
2023/06/16 09:14:31;;;;;;;7.00;5.65;;;;;;;;;;5082626;28;20321;-59
2023/06/16 09:16:59;;;;;;;6.00;5.32;;;;;;;;;;5084743;28;20287;-58
2023/06/16 09:19:26;;;;;;;7.75;5.75;;;;;;;;;;5085424;28;20280;-57
2023/06/16 09:21:54;;;;;;;7.30;6.63;;;;;;;;;;5080398;28;20828;-57
2023/06/16 09:24:26;;;;;;;10.25;6.85;;;;;;;;;;5089151;28;20236;-56
2023/06/16 09:26:53;;;;;;;9.98;7.65;;;;;;;;;;5095032;27;20287;-55
2023/06/16 09:29:23;;;;;;;18.48;7.60;;;;;;;;;;5088107;28;20235;-54
2023/06/16 09:31:50;;;;;;;19.40;8.20;;;;;;;;;;5087919;28;20230;-53
2023/06/16 09:34:17;;;;;;;19.60;8.07;;;;;;;;;;5085417;28;20303;-53
2023/06/16 09:36:43;;;;;;;11.75;7.85;;;;;;;;;;5087528;28;20313;-52
2023/06/16 09:39:22;;;;;;;10.98;7.00;;;;;;;;;;5084888;28;20226;-51
2023/06/16 09:41:50;;;;;;;12.70;6.18;;;;;;;;;;5080503;28;20638;-52
2023/06/16 09:44:17;;;;;;;6.47;5.88;;;;;;;;;;5079040;28;20230;-53
2023/06/16 09:46:43;;;;;;;6.32;5.68;;;;;;;;;;5085711;28;20233;-52
2023/06/16 09:49:19;;;;;;;6.22;5.72;;;;;;;;;;5084708;28;20252;-54
2023/06/16 09:51:49;;;;;;;5.45;5.05;;;;;;;;;;5082833;28;20236;-53
2023/06/16 09:54:16;;;;;;;7.25;5.65;;;;;;;;;;5084473;28;20534;-52
2023/06/16 09:56:44;;;;;;;17.23;7.65;;;;;;;;;;5085698;28;20241;-53
2023/06/16 09:59:11;;;;;;;24.98;8.38;;;;;;;;;;5083598;28;20230;-53
2023/06/16 10:01:40;;;;;;;27.80;9.10;;;;;;;;;;5082253;28;20261;-52
2023/06/16 10:04:09;;;;;;;16.35;8.93;;;;;;;;;;5086440;28;20234;-50
2023/06/16 10:06:38;;;;;;;14.75;8.18;;;;;;;;;;5085715;28;20250;-53
2023/06/16 10:09:06;;;;;;;9.13;7.07;;;;;;;;;;5083297;28;20902;-51
2023/06/16 10:11:33;;;;;;;7.05;6.35;;;;;;;;;;5078665;28;20237;-51
2023/06/16 10:14:01;;;;;;;8.10;5.80;;;;;;;;;;5084330;28;20314;-53
2023/06/16 10:16:30;;;;;;;6.10;5.50;;;;;;;;;;5080755;28;20223;-53
2023/06/16 10:18:59;;;;;;;8.75;6.10;;;;;;;;;;5089774;28;20261;-51
2023/06/16 10:21:26;;;;;;;6.78;5.93;;;;;;;;;;5096867;28;20238;-57
2023/06/16 10:23:53;;;;;;;6.50;5.65;;;;;;;;;;5102821;28;20252;-54
2023/06/16 10:26:20;;;;;;;8.15;6.50;;;;;;;;;;5101230;28;20227;-53
2023/06/16 10:28:47;;;;;;;5.97;5.38;;;;;;;;;;5094620;28;20264;-55
2023/06/16 10:31:14;;;;;;;7.18;5.40;;;;;;;;;;5086915;28;20375;-55
2023/06/16 10:33:54;;;;;;;7.38;6.63;;;;;;;;;;5081659;28;20244;-53
2023/06/16 10:36:24;;;;;;;6.68;6.07;;;;;;;;;;5082141;28;20238;-52
2023/06/16 10:38:58;;;;;;;7.95;6.35;;;;;;;;;;5082254;28;20230;-51
2023/06/16 10:41:24;;;;;;;6.90;5.20;;;;;;;;;;5082170;28;20318;-53
2023/06/16 10:43:51;;;;;;;6.15;5.53;;;;;;;;;;5081369;28;20656;-55
2023/06/16 10:46:18;;;;;;;6.13;5.63;;;;;;;;;;5084261;28;20317;-52
2023/06/16 10:49:10;;;;;;;6.07;5.57;;;;;;;;;;5084693;28;20280;-53
2023/06/16 10:51:40;;;;;;;8.35;6.22;;;;;;;;;;5080488;28;20218;-52
2023/06/16 10:54:07;;;;;;;15.00;9.35;;;;;;;;;;5081794;28;20317;-52
2023/06/16 10:57:00;;;;;;;22.60;8.77;;;;;;;;;;5084365;28;20245;-52
2023/06/16 10:59:26;;;;;;;8.65;6.88;;;;;;;;;;5081053;28;20306;-53
2023/06/16 11:01:55;;;;;;;6.78;6.10;;;;;;;;;;5081197;28;21293;-52
2023/06/16 11:04:24;;;;;;;6.68;6.10;;;;;;;;;;5076396;28;20222;-53
2023/06/16 11:07:09;;;;;;;10.98;6.55;;;;;;;;;;5078427;28;20357;-52
2023/06/16 11:09:36;;;;;;;6.78;6.03;;;;;;;;;;5067089;28;20221;-52
2023/06/16 11:12:03;;;;;;;9.35;5.70;;;;;;;;;;5058488;28;20262;-53
2023/06/16 11:14:29;;;;;;;6.70;6.10;;;;;;;;;;5065850;28;20788;-52
2023/06/16 11:16:56;;;;;;;8.88;6.38;;;;;;;;;;5074184;28;20241;-52
2023/06/16 11:19:24;;;;;;;5.88;5.32;;;;;;;;;;5080472;28;20356;-54
2023/06/16 11:21:50;;;;;;;14.35;6.35;;;;;;;;;;5062424;28;20231;-52
2023/06/16 11:24:19;;;;;;;6.20;5.60;;;;;;;;;;5081929;28;20238;-53
2023/06/16 11:26:45;;;;;;;13.35;7.10;;;;;;;;;;5072387;28;20265;-52
2023/06/16 11:29:12;;;;;;;21.70;9.75;;;;;;;;;;5063484;28;20255;-52
2023/06/16 11:31:39;;;;;;;35.85;12.90;;;;;;;;;;5060668;28;20306;-53
2023/06/16 11:34:05;;;;;;;17.15;7.22;;;;;;;;;;5081404;28;20236;-52
2023/06/16 11:36:34;;;;;;;10.35;7.03;;;;;;;;;;5078631;28;20321;-53
2023/06/16 11:39:03;;;;;;;7.00;6.07;;;;;;;;;;5083821;28;20370;-53
2023/06/16 11:41:31;;;;;;;9.02;6.28;;;;;;;;;;5075499;28;20684;-53
2023/06/16 11:43:58;;;;;;;6.75;6.10;;;;;;;;;;5054379;28;20228;-52
2023/06/16 11:46:25;;;;;;;26.80;7.55;;;;;;;;;;5050305;28;20242;-53
2023/06/16 11:48:52;;;;;;;24.60;8.70;;;;;;;;;;5056887;28;20884;-52
2023/06/16 11:51:18;;;;;;;11.90;6.22;;;;;;;;;;5061316;28;20239;-54
2023/06/16 11:53:46;;;;;;;5.43;5.00;;;;;;;;;;5063684;28;20230;-54
2023/06/16 11:56:14;;;;;;;6.22;5.22;;;;;;;;;;5070555;28;20317;-53
2023/06/16 11:58:42;;;;;;;5.75;5.25;;;;;;;;;;5062448;28;20235;-54
2023/06/16 12:01:12;;;;;;;5.95;5.45;;;;;;;;;;5081708;28;20304;-53
2023/06/16 12:03:39;;;;;;;5.35;4.85;;;;;;;;;;5065259;28;20273;-53
2023/06/16 12:06:06;;;;;;;5.45;5.00;;;;;;;;;;5056368;28;20227;-53
2023/06/16 12:08:36;;;;;;;5.75;5.07;;;;;;;;;;5071170;28;20239;-53
2023/06/16 12:11:05;;;;;;;7.25;5.22;;;;;;;;;;5068387;28;20305;-53
2023/06/16 12:13:34;;;;;;;6.78;5.18;;;;;;;;;;5075611;28;20227;-53
2023/06/16 12:16:00;;;;;;;4.80;4.40;;;;;;;;;;5083366;28;20256;-54
2023/06/16 12:18:27;;;;;;;5.22;4.72;;;;;;;;;;5060356;28;20314;-54
2023/06/16 12:20:53;;;;;;;5.00;4.50;;;;;;;;;;5078669;28;20847;-54
2023/06/16 12:23:20;;;;;;;4.55;4.15;;;;;;;;;;5066113;28;20314;-54
2023/06/16 12:25:48;;;;;;;4.80;4.43;;;;;;;;;;5060922;28;20227;-54
2023/06/16 12:28:20;;;;;;;4.57;4.18;;;;;;;;;;5076090;28;20305;-53
2023/06/16 12:30:46;;;;;;;40.10;9.18;;;;;;;;;;5073035;28;20330;-53
2023/06/16 12:33:13;;;;;;;5.20;4.70;;;;;;;;;;5073449;28;20607;-54
2023/06/16 12:37:44;;;;;;;5.22;4.70;;;;;;;;;;5098986;27;21077;-55
2023/06/16 12:40:14;;;;;;;4.95;4.45;;;;;;;;;;5098957;27;20230;-55
2023/06/16 12:42:41;;;;;;;3.88;3.58;;;;;;;;;;5088529;27;20269;-54
2023/06/16 12:45:08;;;;;;;5.18;4.68;;;;;;;;;;5082442;27;20802;-54
2023/06/16 12:47:35;;;;;;;5.22;4.18;;;;;;;;;;5082477;27;20299;-54
2023/06/16 12:50:02;;;;;;;5.22;4.43;;;;;;;;;;5079112;28;20230;-56
2023/06/16 12:52:29;;;;;;;4.63;4.13;;;;;;;;;;5079668;28;20238;-53
2023/06/16 12:54:57;;;;;;;5.20;4.35;;;;;;;;;;5079740;28;20234;-53
2023/06/16 12:57:24;;;;;;;4.90;4.50;;;;;;;;;;5080094;28;20234;-54
2023/06/16 12:59:51;;;;;;;4.28;3.95;;;;;;;;;;5081074;28;20621;-54
2023/06/16 13:02:18;;;;;;;5.35;4.78;;;;;;;;;;5077418;28;20761;-54
2023/06/16 13:04:45;;;;;;;5.15;4.65;;;;;;;;;;5086475;27;20252;-54
2023/06/16 13:07:11;;;;;;;4.68;4.10;;;;;;;;;;5085798;27;20729;-54
2023/06/16 13:09:38;;;;;;;5.97;5.43;;;;;;;;;;5074701;28;20572;-54
2023/06/16 13:12:07;;;;;;;6.53;5.90;;;;;;;;;;5078965;28;20243;-55
2023/06/16 13:14:34;;;;;;;5.97;5.25;;;;;;;;;;5081225;28;20728;-53
2023/06/16 13:17:01;;;;;;;5.97;5.35;;;;;;;;;;5081150;28;20317;-54
2023/06/16 13:19:27;;;;;;;5.65;5.03;;;;;;;;;;5079879;28;20646;-54
2023/06/16 13:21:53;;;;;;;8.18;5.72;;;;;;;;;;5079896;28;20278;-54
2023/06/16 13:24:20;;;;;;;5.15;4.75;;;;;;;;;;5078075;28;20231;-53
2023/06/16 13:26:46;;;;;;;4.72;4.32;;;;;;;;;;5077214;28;20266;-55
2023/06/16 13:29:14;;;;;;;4.50;4.20;;;;;;;;;;5078907;28;20222;-54
2023/06/16 13:31:41;;;;;;;4.90;4.50;;;;;;;;;;5075230;28;20238;-54
2023/06/16 13:34:07;;;;;;;4.72;4.32;;;;;;;;;;5079636;28;20313;-57
2023/06/16 13:36:33;;;;;;;5.72;5.22;;;;;;;;;;5081263;28;20234;-54
2023/06/16 13:39:01;;;;;;;5.53;5.13;;;;;;;;;;5079115;27;20230;-54
2023/06/16 13:41:29;;;;;;;4.82;4.43;;;;;;;;;;5079960;27;20237;-53
2023/06/16 13:43:55;;;;;;;4.65;4.25;;;;;;;;;;5078527;28;20858;-55
2023/06/16 13:46:23;;;;;;;5.88;5.38;;;;;;;;;;5079539;28;20249;-54
2023/06/16 13:48:49;;;;;;;5.82;5.30;;;;;;;;;;5065676;28;20227;-54
2023/06/16 13:51:16;;;;;;;7.60;5.38;;;;;;;;;;5064982;28;20229;-53
2023/06/16 13:53:43;;;;;;;6.80;5.70;;;;;;;;;;5065189;28;20245;-54
2023/06/16 13:56:10;;;;;;;5.63;5.15;;;;;;;;;;5065698;28;20234;-53
2023/06/16 13:58:36;;;;;;;9.02;5.95;;;;;;;;;;5065770;28;20747;-55
2023/06/16 14:01:03;;;;;;;8.82;5.82;;;;;;;;;;5065485;28;20231;-53
2023/06/16 14:03:31;;;;;;;5.70;5.10;;;;;;;;;;5064827;28;20235;-55
2023/06/16 14:05:57;;;;;;;5.25;4.85;;;;;;;;;;5064027;28;20314;-55
2023/06/16 14:08:24;;;;;;;6.28;5.78;;;;;;;;;;5064941;28;20227;-54
2023/06/16 14:10:51;;;;;;;9.30;6.00;;;;;;;;;;5064626;28;20227;-54
2023/06/16 14:13:17;;;;;;;7.07;5.60;;;;;;;;;;5058312;28;20243;-53
2023/06/16 14:15:44;;;;;;;10.05;6.22;;;;;;;;;;5064188;28;20564;-53
2023/06/16 14:18:10;;;;;;;15.43;5.97;;;;;;;;;;5068680;28;20325;-54
2023/06/16 14:20:38;;;;;;;26.60;9.23;;;;;;;;;;5065168;28;20228;-54
2023/06/16 14:23:05;;;;;;;18.25;8.65;;;;;;;;;;5060058;28;20254;-54
2023/06/16 14:25:32;;;;;;;21.85;7.25;;;;;;;;;;5056666;28;20254;-55
2023/06/16 14:27:58;;;;;;;14.68;5.97;;;;;;;;;;5067033;28;20313;-55
2023/06/16 14:30:25;;;;;;;7.10;5.40;;;;;;;;;;5064949;28;20232;-53
2023/06/16 14:32:51;;;;;;;5.90;5.40;;;;;;;;;;5063690;28;20326;-55
2023/06/16 14:35:18;;;;;;;6.07;5.47;;;;;;;;;;5062853;28;20599;-54
2023/06/16 14:37:45;;;;;;;6.43;5.90;;;;;;;;;;5060775;28;20246;-53
2023/06/16 14:40:12;;;;;;;6.90;6.05;;;;;;;;;;5061852;28;20231;-53
2023/06/16 14:42:38;;;;;;;5.72;5.22;;;;;;;;;;5061716;28;20818;-55
2023/06/16 14:45:05;;;;;;;6.05;5.30;;;;;;;;;;5066494;28;20231;-53
2023/06/16 14:47:32;;;;;;;7.68;5.28;;;;;;;;;;5068187;28;20228;-54